Saint Louisville, OH (43071)

12:34 PM EDT on September 04, 2015 (GMT -0400)
weatherUSA Station | | Change Station
CLOSE
Current Station
Personal Weather Station
Location: St. Louisville, OH
Elevation: 1137 ft
Nearby Weather Stations

Elev 1137 ft 40.17 °N, 82.39 °W | Updated 1 second ago

Partly Cloudy
Partly Cloudy
74.9 °F
Feels Like 76 °F
N
0.0
Wind Variable Wind from East
Gusts 3.0 mph

Today
High -- | Low -- °F
--% Chance of Precip.
Yesterday
High -- | Low -- °F
Precip. -- in
6:59 AM 7:56 PM
Waning Gibbous, 58% visible
Pressure 30.08 in
Visibility 10.0 miles
Clouds Clear
Heat Index 76 °F
Dew Point 67 °F
Humidity 77%
Rainfall 0.00 in
Snow Depth Not available.
UV 8 out of 12
Pollen 9.90 out of 12
Air Quality Not available.
Flu Activity Not available.
METAR KVTA 041554Z AUTO 00000KT 10SM CLR 24/19 A3009 RMK AO2 SLP184 T02440189
Pressure 30.08 in
Visibility 10.0 miles
Clouds Clear
Heat Index 76 °F
Dew Point 67 °F
Humidity 77%
Rainfall 0.00 in
Snow Depth Not available.
UV 8 out of 12
Pollen 9.90 out of 12
Air Quality Not available.
Flu Activity Not available.
METAR KVTA 041554Z AUTO 00000KT 10SM CLR 24/19 A3009 RMK AO2 SLP184 T02440189

10-Day Weather Forecast

×

Almanac

Astronomy

Sep. 04, 2015 Rise Set
Actual Time
Civil Twilight
Nautical Twilight
Astronomical Twilight
Moon
Length of Visible Light
Length of Day
Tomorrow will be .
, % of the Moon is Illuminated

Today's Extremes

State Highs State Lows

Community

WunderPhotos

Upload Photos

1,852,220 photos uploaded!

WunderBlogs® & News

Nearby

Air Quality

  Air Quality AQ Index Pollutant
Not available.

Snow Depth

Station Depth Elevation

Earthquake Activity

City Distance Mag. Time & Date
Minimum magnitude displayed is 2.5.

Coastal Water Temperatures

Place Temperature

Stations

Nearby Weather Stations

Station Location Temp. Windchill Dew Point Humidity Wind Precip. Elev Updated Type